createdAt,value
2022-12-04T00:00:13.321Z,-5.59
2022-12-04T00:02:41.412Z,-5.81
2022-12-04T00:05:09.937Z,-5.98
2022-12-04T00:07:37.357Z,-5.81
2022-12-04T00:10:05.003Z,-5.64
2022-12-04T00:12:32.095Z,-5.74
2022-12-04T00:17:49.322Z,-5.88
2022-12-04T00:20:16.359Z,-5.94
2022-12-04T00:22:43.264Z,-5.92
2022-12-04T00:25:10.256Z,-5.99
2022-12-04T00:27:37.156Z,-5.96
2022-12-04T00:30:04.894Z,-6.24
2022-12-04T00:32:31.994Z,-6.13
2022-12-04T00:34:58.888Z,-6.28
2022-12-04T00:37:25.879Z,-6.19
2022-12-04T00:39:53.164Z,-6.05
2022-12-04T00:42:20.299Z,-5.96
2022-12-04T00:44:47.226Z,-6.15
2022-12-04T00:47:14.316Z,-6.13
2022-12-04T00:49:41.247Z,-6.41
2022-12-04T00:52:08.259Z,-6.42
2022-12-04T00:54:35.153Z,-6.58
2022-12-04T00:57:02.185Z,-6.54
2022-12-04T00:59:29.209Z,-6.41
2022-12-04T01:01:56.264Z,-6.44
2022-12-04T01:04:23.223Z,-6.40
2022-12-04T01:06:50.332Z,-6.35
2022-12-04T01:09:17.273Z,-6.44
2022-12-04T01:11:44.252Z,-6.60
2022-12-04T01:14:11.171Z,-6.55
2022-12-04T01:16:40.202Z,-6.44
2022-12-04T01:19:10.073Z,-6.53
2022-12-04T01:21:37.951Z,-6.68
2022-12-04T01:24:05.446Z,-6.77
2022-12-04T01:26:32.753Z,-6.82
2022-12-04T01:28:59.841Z,-6.63
2022-12-04T01:31:27.095Z,-6.61
2022-12-04T01:33:54.347Z,-6.63
2022-12-04T01:36:24.908Z,-6.59
2022-12-04T01:38:51.905Z,-6.60
2022-12-04T01:41:23.298Z,-6.60
2022-12-04T01:44:11.724Z,-6.38
2022-12-04T01:46:39.814Z,-6.67
2022-12-04T01:49:10.849Z,-6.80
2022-12-04T01:51:42.546Z,-6.57
2022-12-04T01:54:15.151Z,-6.77
2022-12-04T01:56:55.101Z,-6.84
2022-12-04T01:59:26.897Z,-6.75
2022-12-04T02:02:02.860Z,-6.77
2022-12-04T02:04:33.460Z,-6.63
2022-12-04T02:07:00.451Z,-6.81
2022-12-04T02:09:29.231Z,-6.61
2022-12-04T02:12:24.321Z,-6.77
2022-12-04T02:15:08.853Z,-6.96
2022-12-04T02:18:16.476Z,-6.91
2022-12-04T02:21:17.304Z,-6.76
2022-12-04T02:23:53.521Z,-7.01
2022-12-04T02:26:44.943Z,-6.86
2022-12-04T02:29:45.132Z,-7.22
2022-12-04T02:32:29.189Z,-6.89
2022-12-04T02:34:58.533Z,-7.02
2022-12-04T02:37:32.800Z,-7.14
2022-12-04T02:40:08.817Z,-7.09
2022-12-04T02:42:58.129Z,-7.34
2022-12-04T02:45:47.359Z,-7.03
2022-12-04T02:48:20.928Z,-7.02
2022-12-04T02:50:52.180Z,-7.09
2022-12-04T02:53:30.798Z,-6.97
2022-12-04T02:56:03.601Z,-6.87
2022-12-04T02:58:36.767Z,-6.98
2022-12-04T03:01:21.329Z,-7.22
2022-12-04T03:03:57.723Z,-7.21
2022-12-04T03:06:27.170Z,-7.34
2022-12-04T03:09:00.856Z,-7.34
2022-12-04T03:11:31.433Z,-7.38
2022-12-04T03:14:07.492Z,-7.45
2022-12-04T03:16:40.159Z,-7.16
2022-12-04T03:19:18.818Z,-7.33
2022-12-04T03:21:54.268Z,-7.29
2022-12-04T03:24:44.934Z,-7.41
2022-12-04T03:27:29.932Z,-7.55
2022-12-04T03:30:11.266Z,-7.53
2022-12-04T03:32:52.961Z,-7.46
2022-12-04T03:35:47.309Z,-7.53
2022-12-04T03:38:30.420Z,-7.47
2022-12-04T03:41:03.509Z,-7.60
2022-12-04T03:43:51.602Z,-7.68
2022-12-04T03:46:28.187Z,-7.78
2022-12-04T03:49:03.456Z,-7.68
2022-12-04T03:51:38.220Z,-7.74
2022-12-04T03:54:28.481Z,-7.73
2022-12-04T03:57:22.937Z,-7.65
2022-12-04T03:59:55.628Z,-7.73
2022-12-04T04:02:26.230Z,-7.73
2022-12-04T04:04:57.356Z,-7.94
2022-12-04T04:07:35.752Z,-7.73
2022-12-04T04:10:15.329Z,-7.62
2022-12-04T04:13:14.319Z,-7.47
2022-12-04T04:16:12.127Z,-7.63
2022-12-04T04:19:00.617Z,-7.65
2022-12-04T04:21:48.821Z,-7.67
2022-12-04T04:24:35.968Z,-7.68
2022-12-04T04:27:03.840Z,-7.75
2022-12-04T04:29:30.780Z,-7.62
2022-12-04T04:32:28.263Z,-7.68
2022-12-04T04:35:05.660Z,-7.85
2022-12-04T04:37:48.855Z,-7.87
2022-12-04T04:40:30.617Z,-7.80
2022-12-04T04:43:09.289Z,-7.72
2022-12-04T04:45:51.320Z,-7.77
2022-12-04T04:48:30.360Z,-7.98
2022-12-04T04:51:00.110Z,-7.89
2022-12-04T04:53:33.966Z,-7.89
2022-12-04T04:56:01.250Z,-8.03
2022-12-04T04:58:28.146Z,-7.83
2022-12-04T05:01:06.865Z,-7.92
2022-12-04T05:03:34.224Z,-7.74
2022-12-04T05:06:01.571Z,-7.58
2022-12-04T05:08:28.704Z,-7.74
2022-12-04T05:10:55.773Z,-7.74
2022-12-04T05:13:23.132Z,-7.87
2022-12-04T05:16:06.357Z,-7.91
2022-12-04T05:18:35.246Z,-7.81
2022-12-04T05:21:06.816Z,-7.79
2022-12-04T05:23:34.113Z,-7.67
2022-12-04T05:26:03.111Z,-7.92
2022-12-04T05:28:30.219Z,-7.96
2022-12-04T05:30:58.650Z,-7.85
2022-12-04T05:33:25.753Z,-7.83
2022-12-04T05:36:10.546Z,-8.08
2022-12-04T05:38:38.095Z,-7.91
2022-12-04T05:41:06.868Z,-7.83
2022-12-04T05:43:34.609Z,-7.77
2022-12-04T05:46:03.510Z,-7.79
2022-12-04T05:48:30.605Z,-7.79
2022-12-04T05:50:57.517Z,-7.77
2022-12-04T05:53:24.409Z,-7.76
2022-12-04T05:55:59.267Z,-7.87
2022-12-04T05:58:26.589Z,-7.64
2022-12-04T06:00:53.771Z,-7.86
2022-12-04T06:03:20.868Z,-7.61
2022-12-04T06:05:47.763Z,-7.63
2022-12-04T06:08:14.934Z,-7.66
2022-12-04T06:10:42.062Z,-7.67
2022-12-04T06:13:08.987Z,-7.40
2022-12-04T06:15:40.374Z,-7.66
2022-12-04T06:18:07.900Z,-7.60
2022-12-04T06:20:35.330Z,-7.40
2022-12-04T06:23:02.472Z,-7.56
2022-12-04T06:25:29.448Z,-7.48
2022-12-04T06:27:56.339Z,-7.41
2022-12-04T06:30:23.376Z,-7.32
2022-12-04T06:32:50.456Z,-7.28
2022-12-04T06:35:17.338Z,-7.25
2022-12-04T06:37:44.384Z,-7.49
2022-12-04T06:40:11.579Z,-7.31
2022-12-04T06:42:38.490Z,-7.12
2022-12-04T06:45:06.605Z,-7.30
2022-12-04T06:47:35.250Z,-7.07
2022-12-04T06:50:02.438Z,-7.16
2022-12-04T06:52:33.723Z,-7.11
2022-12-04T06:55:01.005Z,-6.84
2022-12-04T06:57:27.947Z,-6.63
2022-12-04T06:59:55.262Z,-6.71
2022-12-04T07:02:23.060Z,-6.50
2022-12-04T07:04:50.082Z,-6.39
2022-12-04T07:07:17.043Z,-6.42
2022-12-04T07:09:44.416Z,-6.24
2022-12-04T07:12:11.392Z,-6.31
2022-12-04T07:14:38.413Z,-6.29
2022-12-04T07:17:05.469Z,-6.33
2022-12-04T07:19:32.565Z,-6.04
2022-12-04T07:21:59.494Z,-6.36
2022-12-04T07:24:26.401Z,-6.13
2022-12-04T07:26:53.385Z,-6.37
2022-12-04T07:29:20.402Z,-6.34
2022-12-04T07:31:47.385Z,-6.22
2022-12-04T07:34:14.398Z,-6.46
2022-12-04T07:36:41.251Z,-6.29
2022-12-04T07:39:08.264Z,-6.10
2022-12-04T07:41:35.693Z,-6.06
2022-12-04T07:44:06.934Z,-6.13
2022-12-04T07:46:34.037Z,-6.15
2022-12-04T07:49:01.045Z,-5.95
2022-12-04T07:51:29.633Z,-5.88
2022-12-04T07:54:02.837Z,-6.03
2022-12-04T07:56:30.952Z,-6.01
2022-12-04T07:58:59.525Z,-5.95
2022-12-04T08:01:26.544Z,-5.58
2022-12-04T08:03:57.083Z,-5.40
2022-12-04T08:06:26.205Z,-5.31
2022-12-04T08:08:53.664Z,-5.49
2022-12-04T08:11:23.087Z,-5.46
2022-12-04T08:13:55.794Z,-5.28
2022-12-04T08:16:22.858Z,-5.39
2022-12-04T08:18:50.359Z,-5.45
2022-12-04T08:21:21.126Z,-5.30
2022-12-04T08:23:51.403Z,-4.66
2022-12-04T08:26:20.578Z,-4.53
2022-12-04T08:28:48.106Z,-4.30
2022-12-04T08:31:19.422Z,-4.21
2022-12-04T08:33:47.896Z,-3.53
2022-12-04T08:36:17.545Z,-3.83
2022-12-04T08:38:44.543Z,-4.09
2022-12-04T08:41:16.456Z,-3.77
2022-12-04T08:43:43.465Z,-3.84
2022-12-04T08:46:18.664Z,-3.96
2022-12-04T08:48:46.142Z,-4.48
2022-12-04T08:51:19.104Z,-4.54
2022-12-04T08:53:46.478Z,-4.52
2022-12-04T08:56:13.811Z,-4.52
2022-12-04T08:58:40.800Z,-4.83
2022-12-04T09:01:12.768Z,-4.55
2022-12-04T09:03:40.374Z,-4.22
2022-12-04T09:06:09.993Z,-4.62
2022-12-04T09:08:37.042Z,-3.97
2022-12-04T09:11:13.321Z,-3.90
2022-12-04T09:13:41.650Z,-4.07
2022-12-04T09:16:11.828Z,-3.69
2022-12-04T09:18:39.319Z,-3.91
2022-12-04T09:21:08.571Z,-3.95
2022-12-04T09:23:36.822Z,-3.74
2022-12-04T09:26:05.028Z,-3.92
2022-12-04T09:28:32.317Z,-4.55
2022-12-04T09:31:01.952Z,-4.58
2022-12-04T09:33:30.948Z,-4.33
2022-12-04T09:36:02.584Z,-4.24
2022-12-04T09:38:30.517Z,-4.25
2022-12-04T09:41:15.080Z,-4.29
2022-12-04T09:44:00.046Z,-4.44
2022-12-04T09:46:32.785Z,-4.38
2022-12-04T09:49:05.052Z,-4.01
2022-12-04T09:51:35.522Z,-3.93
2022-12-04T09:54:29.620Z,-4.03
2022-12-04T09:57:04.527Z,-4.08
2022-12-04T09:59:33.288Z,-4.08
2022-12-04T10:02:09.386Z,-4.19
2022-12-04T10:04:36.369Z,-3.85
2022-12-04T10:07:18.543Z,-3.92
2022-12-04T10:09:56.024Z,-3.71
2022-12-04T10:12:43.535Z,-3.77
2022-12-04T10:15:25.348Z,-3.74
2022-12-04T10:18:22.107Z,-3.72
2022-12-04T10:21:11.486Z,-3.57
2022-12-04T10:23:59.979Z,-4.15
2022-12-04T10:26:36.375Z,-3.99
2022-12-04T10:29:08.607Z,-3.78
2022-12-04T10:31:37.914Z,-4.04
2022-12-04T10:34:16.598Z,-4.07
2022-12-04T10:36:49.384Z,-4.25
2022-12-04T10:39:31.009Z,-4.33
2022-12-04T10:42:01.806Z,-4.46
2022-12-04T10:44:28.881Z,-4.73
2022-12-04T10:47:02.109Z,-4.53
2022-12-04T10:49:37.102Z,-4.80
2022-12-04T10:52:05.502Z,-4.42
2022-12-04T10:54:40.732Z,-4.79
2022-12-04T10:57:10.162Z,-4.64
2022-12-04T10:59:50.591Z,-4.59
2022-12-04T11:02:17.559Z,-4.78
2022-12-04T11:04:58.632Z,-4.63
2022-12-04T11:07:29.087Z,-4.75
2022-12-04T11:10:04.043Z,-4.49
2022-12-04T11:12:32.311Z,-4.60
2022-12-04T11:15:13.620Z,-4.67
2022-12-04T11:17:40.864Z,-4.79
2022-12-04T11:20:23.880Z,-4.72
2022-12-04T11:23:00.267Z,-4.81
2022-12-04T11:25:34.213Z,-4.76
2022-12-04T11:28:03.423Z,-4.74
2022-12-04T11:30:37.162Z,-4.79
2022-12-04T11:33:16.463Z,-4.96
2022-12-04T11:35:43.541Z,-4.85
2022-12-04T11:38:18.570Z,-5.24
2022-12-04T11:40:55.289Z,-5.07
2022-12-04T11:43:27.801Z,-4.88
2022-12-04T11:45:55.985Z,-5.03
2022-12-04T11:48:22.917Z,-5.25
2022-12-04T11:50:55.772Z,-5.31
2022-12-04T11:53:35.856Z,-5.20
2022-12-04T11:56:19.673Z,-5.23
2022-12-04T11:59:08.707Z,-5.30
2022-12-04T12:01:58.831Z,-5.35
2022-12-04T12:05:00.225Z,-5.30
2022-12-04T12:07:51.332Z,-5.35
2022-12-04T12:10:23.970Z,-5.22
2022-12-04T12:13:18.659Z,-5.36
2022-12-04T12:16:11.757Z,-5.27
2022-12-04T12:18:56.999Z,-5.25
2022-12-04T12:21:39.585Z,-5.18
2022-12-04T12:24:15.511Z,-5.23
2022-12-04T12:27:00.914Z,-5.34
2022-12-04T12:29:50.631Z,-5.46
2022-12-04T12:32:23.742Z,-5.46
2022-12-04T12:34:51.599Z,-5.51
2022-12-04T12:37:29.082Z,-5.54
2022-12-04T12:40:10.781Z,-5.53
2022-12-04T12:42:55.051Z,-5.43
2022-12-04T12:45:30.724Z,-5.34
2022-12-04T12:48:08.248Z,-5.38
2022-12-04T12:51:28.657Z,-5.32
2022-12-04T12:53:53.659Z,-5.39
2022-12-04T12:56:31.472Z,-5.61
2022-12-04T12:59:03.334Z,-5.61
2022-12-04T13:01:39.316Z,-5.55
2022-12-04T13:04:34.010Z,-5.53
2022-12-04T13:07:20.834Z,-5.66
2022-12-04T13:09:55.933Z,-5.57
2022-12-04T13:12:24.032Z,-5.65
2022-12-04T13:14:50.931Z,-5.75
2022-12-04T13:17:32.619Z,-5.72
2022-12-04T13:20:08.263Z,-5.71
2022-12-04T13:22:55.147Z,-5.82
2022-12-04T13:25:43.503Z,-5.85
2022-12-04T13:28:25.719Z,-5.80
2022-12-04T13:31:07.612Z,-5.85
2022-12-04T13:33:59.783Z,-6.18
2022-12-04T13:36:48.595Z,-5.94
2022-12-04T13:39:34.567Z,-5.93
2022-12-04T13:42:04.421Z,-5.89
2022-12-04T13:44:34.445Z,-5.89
2022-12-04T13:47:07.724Z,-5.90
2022-12-04T13:49:45.935Z,-5.96
2022-12-04T13:52:40.797Z,-6.03
2022-12-04T13:55:26.388Z,-5.96
2022-12-04T13:57:58.545Z,-6.00
2022-12-04T14:00:36.141Z,-6.18
2022-12-04T14:03:24.707Z,-6.12
2022-12-04T14:05:52.686Z,-6.12
2022-12-04T14:08:25.349Z,-6.07
2022-12-04T14:11:03.493Z,-6.14
2022-12-04T14:13:42.661Z,-6.16
2022-12-04T14:16:21.124Z,-6.20
2022-12-04T14:18:51.144Z,-6.26
2022-12-04T14:21:18.307Z,-6.39
2022-12-04T14:23:46.541Z,-6.36
2022-12-04T14:29:54.598Z,-6.41
2022-12-04T14:32:32.201Z,-6.37
2022-12-04T14:34:59.684Z,-6.56
2022-12-04T14:37:35.984Z,-6.55
2022-12-04T14:40:07.172Z,-6.49
2022-12-04T14:42:38.374Z,-6.39
2022-12-04T14:45:20.408Z,-6.48
2022-12-04T14:48:15.913Z,-6.38
2022-12-04T14:50:55.216Z,-6.36
2022-12-04T14:53:44.683Z,-6.39
2022-12-04T14:56:11.587Z,-6.36
2022-12-04T14:58:39.443Z,-6.46
2022-12-04T15:01:29.468Z,-6.42
2022-12-04T15:04:10.405Z,-6.52
2022-12-04T15:06:39.613Z,-6.50
2022-12-04T15:09:45.720Z,-6.56
2022-12-04T15:12:35.430Z,-6.67
2022-12-04T15:15:14.490Z,-6.66
2022-12-04T15:17:41.424Z,-6.85
2022-12-04T15:20:17.039Z,-6.76
2022-12-04T15:22:44.845Z,-6.81
2022-12-04T15:25:21.166Z,-6.86
2022-12-04T15:27:52.733Z,-6.75
2022-12-04T15:30:23.130Z,-6.85
2022-12-04T15:32:53.566Z,-6.90
2022-12-04T15:35:28.904Z,-6.76
2022-12-04T15:37:56.252Z,-6.74
2022-12-04T15:40:29.024Z,-6.74
2022-12-04T15:43:07.492Z,-6.73
2022-12-04T15:45:34.913Z,-6.78
2022-12-04T15:48:02.076Z,-6.86
2022-12-04T15:50:30.816Z,-6.93
2022-12-04T15:53:06.666Z,-6.83
2022-12-04T15:55:48.891Z,-7.02
2022-12-04T15:58:30.036Z,-6.87
2022-12-04T16:01:03.773Z,-6.83
2022-12-04T16:03:34.838Z,-6.95
2022-12-04T16:06:07.153Z,-6.91
2022-12-04T16:08:37.258Z,-6.89
2022-12-04T16:11:07.743Z,-7.00
2022-12-04T16:13:38.078Z,-7.09
2022-12-04T16:16:08.136Z,-7.03
2022-12-04T16:18:35.235Z,-7.07
2022-12-04T16:21:02.251Z,-7.06
2022-12-04T16:23:29.351Z,-7.12
2022-12-04T16:25:56.206Z,-7.16
2022-12-04T16:28:23.295Z,-7.30
2022-12-04T16:30:52.780Z,-7.20
2022-12-04T16:33:19.895Z,-7.24
2022-12-04T16:35:46.878Z,-7.18
2022-12-04T16:38:16.609Z,-7.33
2022-12-04T16:40:45.430Z,-7.48
2022-12-04T16:43:14.338Z,-7.21
2022-12-04T16:45:46.198Z,-7.17
2022-12-04T16:48:13.811Z,-7.14
2022-12-04T16:50:41.055Z,-7.15
2022-12-04T16:53:08.087Z,-7.15
2022-12-04T16:55:38.266Z,-7.32
2022-12-04T16:58:06.175Z,-7.32
2022-12-04T17:00:33.098Z,-7.20
2022-12-04T17:03:04.149Z,-7.15
2022-12-04T17:05:35.778Z,-7.42
2022-12-04T17:08:02.972Z,-7.33
2022-12-04T17:10:30.197Z,-7.28
2022-12-04T17:12:57.337Z,-7.22
2022-12-04T17:15:24.218Z,-7.25
2022-12-04T17:17:51.735Z,-7.29
2022-12-04T17:20:20.728Z,-7.22
2022-12-04T17:22:48.391Z,-7.43
2022-12-04T17:25:16.855Z,-7.53
2022-12-04T17:27:44.231Z,-7.51
2022-12-04T17:30:12.753Z,-7.50
2022-12-04T17:32:39.934Z,-7.67
2022-12-04T17:35:08.973Z,-7.67
2022-12-04T17:37:36.575Z,-7.67
2022-12-04T17:40:03.804Z,-7.78
2022-12-04T17:42:30.845Z,-7.82
2022-12-04T17:44:58.191Z,-7.76
2022-12-04T17:47:25.438Z,-7.91
2022-12-04T17:49:52.378Z,-7.83
2022-12-04T17:52:22.248Z,-7.83
2022-12-04T17:54:50.786Z,-7.90
2022-12-04T17:57:19.170Z,-7.81
2022-12-04T17:59:46.206Z,-7.93
2022-12-04T18:02:13.482Z,-7.99
2022-12-04T18:04:40.928Z,-8.04
2022-12-04T18:07:08.669Z,-7.86
2022-12-04T18:09:36.319Z,-7.84
2022-12-04T18:12:03.808Z,-7.84
2022-12-04T18:14:32.000Z,-7.96
2022-12-04T18:16:59.184Z,-7.95
2022-12-04T18:19:27.988Z,-7.95
2022-12-04T18:21:55.758Z,-8.07
2022-12-04T18:24:24.209Z,-8.09
2022-12-04T18:26:51.503Z,-8.11
2022-12-04T18:29:21.653Z,-8.01
2022-12-04T18:31:48.928Z,-8.22
2022-12-04T18:34:15.981Z,-8.26
2022-12-04T18:36:45.421Z,-8.17
2022-12-04T18:39:16.175Z,-8.14
2022-12-04T18:41:43.773Z,-8.47
2022-12-04T18:44:11.349Z,-8.19
2022-12-04T18:46:38.857Z,-8.18
2022-12-04T18:49:06.416Z,-8.16
2022-12-04T18:51:44.572Z,-8.19
2022-12-04T18:54:16.970Z,-8.20
2022-12-04T18:56:44.250Z,-8.21
2022-12-04T18:59:22.998Z,-8.33
2022-12-04T19:01:50.736Z,-8.17
2022-12-04T19:04:19.650Z,-8.09
2022-12-04T19:06:51.706Z,-8.31
2022-12-04T19:09:40.740Z,-8.30
2022-12-04T19:12:11.977Z,-8.39
2022-12-04T19:14:39.873Z,-8.27
2022-12-04T19:17:06.955Z,-8.29
2022-12-04T19:19:33.882Z,-8.43
2022-12-04T19:22:01.302Z,-8.47
2022-12-04T19:24:28.232Z,-8.60
2022-12-04T19:26:55.161Z,-8.43
2022-12-04T19:29:22.094Z,-8.51
2022-12-04T19:31:49.135Z,-8.50
2022-12-04T19:34:16.150Z,-8.48
2022-12-04T19:36:45.454Z,-8.62
2022-12-04T19:39:12.746Z,-8.74
2022-12-04T19:41:41.630Z,-8.75
2022-12-04T19:44:40.228Z,-8.62
2022-12-04T19:46:56.728Z,-8.69
2022-12-04T19:49:23.752Z,-8.64
2022-12-04T19:51:50.893Z,-8.83
2022-12-04T19:54:18.657Z,-8.68
2022-12-04T19:56:51.102Z,-8.78
2022-12-04T19:59:20.253Z,-8.86
2022-12-04T20:01:47.557Z,-8.68
2022-12-04T20:04:14.624Z,-8.81
2022-12-04T20:06:45.508Z,-9.22
2022-12-04T20:09:15.230Z,-8.97
2022-12-04T20:11:42.658Z,-8.98
2022-12-04T20:14:10.653Z,-8.91
2022-12-04T20:16:38.753Z,-8.88
2022-12-04T20:19:07.836Z,-8.88
2022-12-04T20:21:35.177Z,-8.84
2022-12-04T20:24:05.203Z,-8.92
2022-12-04T20:26:35.915Z,-9.03
2022-12-04T20:29:03.093Z,-8.91
2022-12-04T20:31:38.682Z,-8.94
2022-12-04T20:34:08.267Z,-8.94
2022-12-04T20:36:42.910Z,-8.88
2022-12-04T20:39:11.482Z,-8.99
2022-12-04T20:41:39.097Z,-8.93
2022-12-04T20:44:08.704Z,-8.88
2022-12-04T20:46:38.481Z,-9.05
2022-12-04T20:49:09.072Z,-8.93
2022-12-04T20:51:39.230Z,-8.88
2022-12-04T20:54:09.160Z,-8.88
2022-12-04T20:56:37.725Z,-8.86
2022-12-04T20:59:11.627Z,-8.87
2022-12-04T21:01:39.384Z,-8.89
2022-12-04T21:04:06.731Z,-9.03
2022-12-04T21:06:36.778Z,-8.97
2022-12-04T21:09:06.126Z,-8.91
2022-12-04T21:11:39.112Z,-8.83
2022-12-04T21:14:31.679Z,-8.85
2022-12-04T21:16:59.095Z,-8.88
2022-12-04T21:19:26.426Z,-9.16
2022-12-04T21:21:54.304Z,-8.97
2022-12-04T21:24:23.690Z,-8.91
2022-12-04T21:26:50.565Z,-8.81
2022-12-04T21:29:17.490Z,-8.92
2022-12-04T21:31:45.048Z,-8.95
2022-12-04T21:34:14.106Z,-9.09
2022-12-04T21:36:41.525Z,-8.88
2022-12-04T21:39:09.381Z,-8.89
2022-12-04T21:41:54.803Z,-9.04
2022-12-04T21:44:21.988Z,-9.07
2022-12-04T21:46:49.811Z,-9.07
2022-12-04T21:49:18.545Z,-9.24
2022-12-04T21:51:57.464Z,-9.20
2022-12-04T21:54:26.787Z,-9.16
2022-12-04T21:56:54.504Z,-9.18
2022-12-04T21:59:21.786Z,-9.27
2022-12-04T22:01:48.816Z,-9.30
2022-12-04T22:04:16.030Z,-9.25
2022-12-04T22:06:43.654Z,-9.37
2022-12-04T22:09:12.612Z,-9.44
2022-12-04T22:11:41.632Z,-9.39
2022-12-04T22:14:09.587Z,-9.53
2022-12-04T22:16:41.646Z,-9.65
2022-12-04T22:19:09.866Z,-9.47
2022-12-04T22:21:36.791Z,-9.56
2022-12-04T22:24:23.757Z,-9.58
2022-12-04T22:26:50.670Z,-9.61
2022-12-04T22:29:48.678Z,-9.67
2022-12-04T22:32:04.548Z,-9.66
2022-12-04T22:34:31.604Z,-9.68
2022-12-04T22:36:58.559Z,-9.64
2022-12-04T22:39:25.576Z,-9.61
2022-12-04T22:41:52.545Z,-9.69
2022-12-04T22:44:19.711Z,-9.67
2022-12-04T22:46:47.068Z,-9.61
2022-12-04T22:49:14.012Z,-9.65
2022-12-04T22:51:40.948Z,-9.68
2022-12-04T22:54:13.134Z,-9.72
2022-12-04T22:56:40.166Z,-9.74
2022-12-04T22:59:07.062Z,-9.75
2022-12-04T23:01:34.667Z,-9.75
2022-12-04T23:04:02.971Z,-9.73
2022-12-04T23:06:31.491Z,-9.75
2022-12-04T23:09:01.946Z,-9.77
2022-12-04T23:11:29.753Z,-9.72
2022-12-04T23:14:00.386Z,-9.76
2022-12-04T23:16:29.604Z,-9.75
2022-12-04T23:18:57.506Z,-9.74
2022-12-04T23:21:25.851Z,-9.71
2022-12-04T23:23:53.943Z,-9.79
2022-12-04T23:26:41.989Z,-9.76
2022-12-04T23:29:29.593Z,-9.73
2022-12-04T23:31:56.163Z,-9.70
2022-12-04T23:34:23.219Z,-9.72
2022-12-04T23:36:50.023Z,-9.75
2022-12-04T23:39:16.998Z,-9.75
2022-12-04T23:41:43.868Z,-9.75
2022-12-04T23:44:10.911Z,-9.73
2022-12-04T23:46:37.849Z,-9.72
2022-12-04T23:49:05.077Z,-9.91
2022-12-04T23:51:31.932Z,-9.75
2022-12-04T23:53:59.415Z,-9.74
2022-12-04T23:56:27.786Z,-9.73
2022-12-04T23:58:57.016Z,-9.77
